Time;durP1;ratioP1;P1;durP2;ratioP2;P2;SDS_P1;SDS_P2;PMS_P1;PMS_P2;Temp;Humidity;BMP_temperature;BMP_pressure;BME280_temperature;BME280_humidity;BME280_pressure;Samples;Min_cycle;Max_cycle;Signal;HPM_P1;HPM_P2
2021/06/22 00:01:53;;;;;;;19.67;8.07;;;;;;;12.15;86.43;100325.81;10264757;28;20224;-74
2021/06/22 00:06:55;;;;;;;13.13;7.60;;;;;;;12.10;86.22;100336.97;10247640;28;20279;-74
2021/06/22 00:12:00;;;;;;;13.05;8.00;;;;;;;11.95;86.61;100341.84;10265518;28;20204;-75
2021/06/22 00:17:03;;;;;;;22.05;7.32;;;;;;;12.04;86.79;100350.97;10264951;28;20219;-75
2021/06/22 00:22:07;;;;;;;15.95;7.40;;;;;;;12.06;86.32;100366.97;10265050;28;20213;-72
2021/06/22 00:27:13;;;;;;;12.63;7.22;;;;;;;11.64;85.16;100365.19;10265950;28;20213;-73
2021/06/22 00:32:15;;;;;;;16.30;8.30;;;;;;;11.50;85.52;100338.63;10272041;28;20217;-75
2021/06/22 00:37:19;;;;;;;15.20;7.35;;;;;;;11.74;86.65;100327.59;10271363;28;20279;-73
2021/06/22 00:42:24;;;;;;;13.95;7.47;;;;;;;11.87;86.62;100321.97;10272398;28;20303;-73
2021/06/22 00:47:29;;;;;;;22.30;8.98;;;;;;;11.89;86.77;100298.47;10269700;28;20228;-74
2021/06/22 00:52:32;;;;;;;15.40;8.35;;;;;;;11.86;86.59;100294.22;10253879;28;20287;-72
2021/06/22 00:57:37;;;;;;;19.65;8.73;;;;;;;11.92;86.91;100295.50;10270681;28;20211;-72
2021/06/22 01:02:40;;;;;;;17.17;7.95;;;;;;;11.97;86.54;100292.41;10270743;28;20215;-74
2021/06/22 01:07:44;;;;;;;15.05;8.70;;;;;;;11.99;86.61;100295.84;10270409;28;20697;-72
2021/06/22 01:12:50;;;;;;;15.35;7.82;;;;;;;11.88;86.60;100297.63;10253797;28;20196;-75
2021/06/22 01:17:55;;;;;;;17.60;8.20;;;;;;;11.87;86.32;100281.59;10252602;28;20255;-74
2021/06/22 01:23:01;;;;;;;18.08;8.38;;;;;;;11.83;86.87;100272.09;10270308;28;20674;-74
2021/06/22 01:28:04;;;;;;;18.30;8.15;;;;;;;11.80;86.31;100273.22;10252194;28;20228;-74
2021/06/22 01:33:13;;;;;;;17.83;8.77;;;;;;;11.68;86.25;100277.84;10252776;28;20282;-73
2021/06/22 01:38:18;;;;;;;16.25;8.05;;;;;;;11.79;86.37;100270.66;10252073;28;20733;-72
2021/06/22 01:43:25;;;;;;;17.23;8.68;;;;;;;11.85;86.67;100289.81;10252264;28;20259;-76
2021/06/22 01:48:30;;;;;;;19.08;8.15;;;;;;;11.89;86.77;100312.78;10269225;28;20576;-76
2021/06/22 01:53:35;;;;;;;18.35;8.82;;;;;;;11.98;87.07;100315.66;10252061;28;20196;-74
2021/06/22 01:58:44;;;;;;;13.98;8.50;;;;;;;11.98;86.78;100326.41;10251549;28;20661;-74
2021/06/22 02:04:08;;;;;;;14.95;7.68;;;;;;;12.02;87.02;100325.19;10268585;28;20263;-74
2021/06/22 02:09:13;;;;;;;12.90;8.35;;;;;;;12.05;86.87;100338.34;10268902;28;20217;-74
2021/06/22 02:14:16;;;;;;;16.27;7.82;;;;;;;12.01;86.71;100334.22;10268419;28;20594;-74
2021/06/22 02:19:20;;;;;;;12.13;6.80;;;;;;;12.01;86.81;100355.75;10268532;28;20701;-74
2021/06/22 02:24:25;;;;;;;13.50;6.53;;;;;;;11.96;86.74;100361.56;10251007;28;20229;-74
2021/06/22 02:29:28;;;;;;;11.95;6.22;;;;;;;12.04;86.49;100340.22;10250945;28;20300;-75
2021/06/22 02:34:31;;;;;;;11.65;6.63;;;;;;;12.04;86.66;100332.13;10267697;28;20193;-73
2021/06/22 02:39:36;;;;;;;12.63;6.43;;;;;;;12.03;86.79;100332.25;10251698;28;20315;-75
2021/06/22 02:44:40;;;;;;;14.32;6.57;;;;;;;11.99;86.21;100329.00;10267416;28;20220;-73
2021/06/22 02:49:43;;;;;;;12.15;7.10;;;;;;;12.01;86.43;100323.44;10267279;28;20208;-74
2021/06/22 02:54:48;;;;;;;12.10;6.65;;;;;;;12.01;86.66;100327.00;10249862;28;20224;-74
2021/06/22 02:59:51;;;;;;;9.95;6.13;;;;;;;12.00;86.59;100352.22;10250109;28;20682;-75
2021/06/22 03:04:55;;;;;;;13.13;5.80;;;;;;;12.02;86.86;100376.31;10249868;28;20577;-74
2021/06/22 03:09:59;;;;;;;12.02;6.85;;;;;;;12.06;86.83;100375.91;10266930;28;20213;-72
2021/06/22 03:15:02;;;;;;;11.05;6.00;;;;;;;12.10;87.08;100388.13;10266842;28;20718;-72
2021/06/22 03:20:10;;;;;;;14.18;6.30;;;;;;;12.01;86.05;100413.13;10249541;28;20279;-73
2021/06/22 03:25:15;;;;;;;11.00;6.93;;;;;;;11.98;86.48;100421.47;10248872;28;20240;-73
2021/06/22 03:30:29;;;;;;;13.95;5.75;;;;;;;12.01;86.58;100410.44;10266580;28;20208;-73
2021/06/22 03:35:32;;;;;;;13.55;6.72;;;;;;;12.00;86.49;100400.69;10266205;28;20188;-71
2021/06/22 03:40:36;;;;;;;15.65;7.15;;;;;;;11.99;86.29;100395.44;10266142;28;20307;-73
2021/06/22 03:45:39;;;;;;;21.42;7.38;;;;;;;11.98;86.37;100391.03;10269117;28;20675;-72
2021/06/22 03:50:42;;;;;;;17.88;7.93;;;;;;;12.13;86.79;100392.38;10274760;28;20291;-72
2021/06/22 03:55:47;;;;;;;13.43;7.40;;;;;;;12.16;86.21;100395.66;10248242;28;20212;-72
2021/06/22 04:01:00;;;;;;;22.73;8.43;;;;;;;12.08;85.91;100400.00;10250430;28;20220;-72
2021/06/22 04:06:10;;;;;;;18.52;7.90;;;;;;;12.12;86.20;100396.94;10255411;28;20315;-73
2021/06/22 04:11:14;;;;;;;15.80;8.35;;;;;;;12.24;86.14;100405.75;10273315;28;20251;-72
2021/06/22 04:16:17;;;;;;;16.52;8.68;;;;;;;12.21;85.74;100406.03;10272441;28;20193;-73
2021/06/22 04:21:22;;;;;;;15.13;8.57;;;;;;;12.33;86.32;100410.38;10272473;28;20276;-72
2021/06/22 04:26:29;;;;;;;19.10;9.50;;;;;;;12.44;86.52;100397.78;10254319;28;20224;-72
2021/06/22 04:31:32;;;;;;;19.20;9.48;;;;;;;12.48;85.66;100420.75;10272262;28;20640;-73
2021/06/22 04:36:35;;;;;;;20.83;10.23;;;;;;;12.31;85.07;100430.34;10272371;28;20292;-72
2021/06/22 04:41:40;;;;;;;21.90;10.77;;;;;;;12.64;86.06;100410.31;10272950;28;20278;-71
2021/06/22 04:46:43;;;;;;;24.05;10.63;;;;;;;12.88;85.27;100404.59;10272513;28;20228;-72
2021/06/22 04:51:46;;;;;;;20.98;9.85;;;;;;;13.13;85.14;100411.28;10272730;28;20574;-73
2021/06/22 04:56:51;;;;;;;22.10;11.43;;;;;;;13.16;84.28;100397.50;10272274;28;20215;-73
2021/06/22 05:01:54;;;;;;;23.27;11.63;;;;;;;13.25;84.93;100391.28;10272312;28;20247;-72
2021/06/22 05:06:58;;;;;;;26.35;11.32;;;;;;;13.40;84.58;100402.53;10271613;28;20220;-72
2021/06/22 05:12:03;;;;;;;22.48;11.15;;;;;;;13.40;83.30;100394.44;10271814;28;20203;-71
2021/06/22 05:17:05;;;;;;;20.23;10.90;;;;;;;13.26;84.10;100389.44;10271387;28;20701;-73
2021/06/22 05:22:08;;;;;;;21.13;10.68;;;;;;;13.17;84.19;100393.84;10271881;28;20212;-72
2021/06/22 05:27:13;;;;;;;22.48;11.10;;;;;;;13.29;84.55;100405.34;10271146;28;20217;-72
2021/06/22 05:32:17;;;;;;;20.88;11.63;;;;;;;14.06;84.12;100399.03;10271122;28;20219;-72
2021/06/22 05:37:20;;;;;;;18.73;10.00;;;;;;;14.51;80.88;100398.31;10253479;28;20233;-73
2021/06/22 05:42:24;;;;;;;17.13;9.90;;;;;;;14.21;80.59;100390.47;10270239;28;20279;-73
2021/06/22 05:47:27;;;;;;;16.88;9.23;;;;;;;14.09;81.78;100381.66;10270135;28;20231;-73
2021/06/22 05:52:30;;;;;;;16.15;9.20;;;;;;;14.10;80.68;100394.19;10268308;28;20548;-74
2021/06/22 05:57:35;;;;;;;17.60;9.70;;;;;;;14.18;80.67;100415.91;10252532;28;20220;-73
2021/06/22 06:02:38;;;;;;;16.20;9.73;;;;;;;14.12;82.23;100438.09;10270017;28;20204;-73
2021/06/22 06:07:41;;;;;;;15.45;8.55;;;;;;;14.10;81.35;100442.81;10266620;28;20224;-75
2021/06/22 06:12:46;;;;;;;14.77;8.40;;;;;;;14.40;81.67;100430.06;10270233;28;20624;-75
2021/06/22 06:17:49;;;;;;;15.43;7.45;;;;;;;14.63;80.93;100439.53;10267750;28;20243;-75
2021/06/22 06:22:52;;;;;;;17.50;7.78;;;;;;;14.95;81.43;100441.78;10272413;28;20192;-75
2021/06/22 06:27:59;;;;;;;15.48;7.90;;;;;;;15.30;80.21;100425.72;10269692;28;20225;-77
2021/06/22 06:33:02;;;;;;;15.50;9.63;;;;;;;15.50;76.87;100432.72;10259809;28;20619;-77
2021/06/22 06:38:05;;;;;;;14.75;8.93;;;;;;;15.80;76.74;100426.03;10271720;28;20675;-76
2021/06/22 06:43:10;;;;;;;19.85;10.13;;;;;;;16.08;73.48;100431.31;10252128;28;20691;-76
2021/06/22 06:48:13;;;;;;;14.80;8.02;;;;;;;16.02;74.57;100434.69;10268525;28;20219;-75
2021/06/22 06:53:16;;;;;;;14.40;7.72;;;;;;;16.04;73.23;100449.72;10273432;28;20591;-78
2021/06/22 06:58:21;;;;;;;14.13;7.18;;;;;;;15.96;72.65;100454.25;10254850;28;20723;-76
2021/06/22 07:03:24;;;;;;;12.30;6.50;;;;;;;16.17;73.18;100462.03;10268456;28;20685;-76
2021/06/22 07:08:27;;;;;;;12.82;6.55;;;;;;;16.29;72.16;100467.06;10270500;28;20228;-75
2021/06/22 07:13:31;;;;;;;11.68;8.10;;;;;;;16.22;70.76;100473.25;10267864;28;20225;-77
2021/06/22 07:18:34;;;;;;;11.93;7.32;;;;;;;16.61;70.32;100489.94;10250537;28;20315;-76
2021/06/22 07:23:37;;;;;;;11.15;8.25;;;;;;;16.86;68.01;100484.63;10235280;28;20208;-75
2021/06/22 07:28:41;;;;;;;12.75;8.18;;;;;;;17.60;66.02;100483.00;10267389;28;20687;-75
2021/06/22 07:33:44;;;;;;;17.08;8.95;;;;;;;18.37;60.48;100480.81;10267346;28;20197;-75
2021/06/22 07:38:47;;;;;;;15.95;9.30;;;;;;;18.99;59.88;100485.56;10266519;28;20266;-74
2021/06/22 07:43:52;;;;;;;14.85;9.80;;;;;;;19.46;58.74;100471.84;10266535;28;20220;-75
2021/06/22 07:48:55;;;;;;;11.15;8.27;;;;;;;18.57;56.87;100462.25;10266458;28;20295;-75
2021/06/22 07:53:58;;;;;;;15.85;9.50;;;;;;;17.75;60.09;100461.47;10266551;28;20195;-74
2021/06/22 07:59:03;;;;;;;14.18;8.90;;;;;;;17.48;60.78;100458.91;10249232;28;20252;-75
2021/06/22 08:04:06;;;;;;;15.02;8.02;;;;;;;17.65;59.95;100459.75;10265965;28;20208;-76
2021/06/22 08:09:08;;;;;;;13.55;8.07;;;;;;;17.62;58.73;100461.97;10266430;28;20220;-75
2021/06/22 08:14:13;;;;;;;8.07;6.70;;;;;;;17.43;58.32;100457.69;10267229;28;20271;-75
2021/06/22 08:19:16;;;;;;;9.23;5.93;;;;;;;17.22;59.30;100472.59;10266698;28;20653;-76
2021/06/22 08:24:19;;;;;;;8.75;5.38;;;;;;;16.80;58.83;100476.13;10266048;28;20296;-74
2021/06/22 08:29:23;;;;;;;8.20;5.80;;;;;;;16.64;60.90;100488.78;10247531;28;20224;-75
2021/06/22 08:34:28;;;;;;;12.25;6.25;;;;;;;16.59;59.69;100489.25;10265357;28;20193;-74
2021/06/22 08:39:31;;;;;;;11.60;5.82;;;;;;;16.39;60.68;100488.63;10321486;22;20311;-74
2021/06/22 08:44:36;;;;;;;10.73;6.68;;;;;;;16.25;61.88;100495.44;10344699;28;20698;-73
2021/06/22 08:49:39;;;;;;;11.60;5.82;;;;;;;16.14;62.07;100493.00;10335365;28;20215;-75
2021/06/22 08:54:42;;;;;;;10.90;5.80;;;;;;;16.30;61.90;100500.44;10311817;28;20198;-74
2021/06/22 08:59:47;;;;;;;8.75;6.00;;;;;;;16.50;60.53;100495.66;10308499;28;20244;-74
2021/06/22 09:04:50;;;;;;;8.52;5.45;;;;;;;16.84;59.64;100495.66;10339308;28;20241;-75
2021/06/22 09:09:53;;;;;;;12.52;6.63;;;;;;;17.30;57.60;100496.19;10324758;28;20247;-75
2021/06/22 09:14:58;;;;;;;11.27;6.47;;;;;;;17.89;56.74;100507.00;10339655;28;20196;-75
2021/06/22 09:20:01;;;;;;;8.90;6.93;;;;;;;18.72;54.02;100501.28;10351535;28;20208;-74
2021/06/22 09:25:09;;;;;;;8.15;6.30;;;;;;;19.17;52.71;100488.91;10344876;28;20214;-74
2021/06/22 09:30:14;;;;;;;8.93;6.65;;;;;;;18.65;53.12;100510.31;10337238;28;20212;-75
2021/06/22 09:35:21;;;;;;;9.88;7.07;;;;;;;17.62;54.42;100535.31;10350288;28;20192;-75
2021/06/22 09:40:26;;;;;;;10.02;7.30;;;;;;;16.89;57.44;100530.44;10333017;28;20227;-75
2021/06/22 09:45:31;;;;;;;7.63;6.82;;;;;;;16.47;58.46;100532.06;10350428;28;20227;-75
2021/06/22 09:50:46;;;;;;;9.10;5.55;;;;;;;16.33;60.67;100527.22;10347280;28;20217;-74
2021/06/22 09:56:22;;;;;;;11.40;5.22;;;;;;;16.31;61.17;100518.41;10349269;28;20200;-73
2021/06/22 10:01:31;;;;;;;8.57;4.85;;;;;;;16.30;60.85;100511.28;10350516;28;20218;-75
2021/06/22 10:06:35;;;;;;;8.90;5.40;;;;;;;16.70;60.16;100516.13;10343896;28;20211;-75
2021/06/22 10:11:40;;;;;;;15.15;5.90;;;;;;;17.67;57.82;100509.34;10350061;28;20195;-74
2021/06/22 10:16:44;;;;;;;10.45;7.05;;;;;;;18.54;54.50;100519.69;10345049;28;20275;-75
2021/06/22 10:21:48;;;;;;;8.45;5.80;;;;;;;18.70;53.93;100508.75;10334619;28;20202;-75
2021/06/22 10:26:53;;;;;;;7.72;4.68;;;;;;;18.38;53.78;100517.03;10329598;28;20200;-75
2021/06/22 10:31:58;;;;;;;7.70;4.88;;;;;;;18.10;54.52;100530.94;10319161;28;20698;-74
2021/06/22 10:37:07;;;;;;;9.90;5.40;;;;;;;18.19;55.04;100524.50;10306649;28;20893;-75
2021/06/22 10:42:13;;;;;;;9.82;6.63;;;;;;;18.44;55.06;100525.34;10331051;28;20620;-75
2021/06/22 10:47:28;;;;;;;10.15;6.35;;;;;;;18.77;53.77;100517.09;10345376;28;20216;-74
2021/06/22 10:53:06;;;;;;;10.02;5.38;;;;;;;18.73;52.93;100518.44;10347892;28;20190;-75
2021/06/22 10:58:12;;;;;;;7.70;5.10;;;;;;;18.48;54.10;100518.50;10348383;28;20571;-75
2021/06/22 11:03:22;;;;;;;10.38;6.05;;;;;;;18.36;54.61;100511.75;10348560;28;20192;-75
2021/06/22 11:08:33;;;;;;;5.57;3.97;;;;;;;18.13;55.59;100526.03;10347859;28;20234;-75
2021/06/22 11:13:37;;;;;;;7.70;4.32;;;;;;;;;;10330351;28;20203;-74
2021/06/22 11:19:06;;;;;;;8.35;4.10;;;;;;;18.92;53.05;100528.13;10347743;28;20570;-75
2021/06/22 11:24:12;;;;;;;7.78;4.28;;;;;;;19.80;49.68;100527.00;10347364;28;20191;-75
2021/06/22 11:29:17;;;;;;;7.47;4.30;;;;;;;19.96;49.39;100520.59;10347892;28;20302;-75
2021/06/22 11:34:23;;;;;;;6.72;3.80;;;;;;;19.43;49.46;100528.59;10347297;28;20203;-74
2021/06/22 11:39:27;;;;;;;7.43;4.80;;;;;;;18.70;51.01;100526.97;10347332;28;20240;-75
2021/06/22 11:44:30;;;;;;;7.97;4.43;;;;;;;18.70;52.71;100514.22;10347100;28;20191;-75
2021/06/22 11:49:42;;;;;;;6.38;3.90;;;;;;;19.07;51.25;100520.09;10347141;28;20230;-75
2021/06/22 11:55:02;;;;;;;9.45;4.20;;;;;;;19.64;49.67;100517.94;10346926;28;20196;-75
2021/06/22 12:00:08;;;;;;;6.55;4.22;;;;;;;20.22;48.73;100518.31;10347000;28;20225;-75
2021/06/22 12:05:17;;;;;;;6.22;4.20;;;;;;;21.00;47.75;100508.78;10346747;28;20688;-74
2021/06/22 12:10:23;;;;;;;11.43;4.50;;;;;;;21.75;45.16;100505.94;10346731;28;20211;-75
2021/06/22 12:15:30;;;;;;;8.25;3.90;;;;;;;21.93;45.62;100508.22;10346511;28;20195;-75
2021/06/22 12:20:36;;;;;;;15.60;3.90;;;;;;;22.46;44.23;100497.72;10346385;28;20212;-75
2021/06/22 12:25:41;;;;;;;6.53;3.45;;;;;;;23.58;42.68;100485.63;10333557;28;20223;-75
2021/06/22 12:30:46;;;;;;;7.95;3.40;;;;;;;24.56;40.22;100487.84;10357113;28;20215;-75
2021/06/22 12:35:51;;;;;;;6.20;3.55;;;;;;;24.97;37.52;100480.09;10353595;28;20199;-75
2021/06/22 12:40:57;;;;;;;5.90;3.10;;;;;;;25.48;37.37;100483.03;10353126;28;20225;-75
2021/06/22 12:46:03;;;;;;;5.93;3.38;;;;;;;24.04;39.04;100482.13;10352515;28;20218;-75
2021/06/22 12:51:08;;;;;;;6.05;3.40;;;;;;;24.75;39.24;100473.19;10352711;28;20286;-75
2021/06/22 12:56:13;;;;;;;5.80;3.97;;;;;;;24.14;38.70;100479.81;10352486;28;20183;-75
2021/06/22 13:01:43;;;;;;;6.90;3.53;;;;;;;23.41;40.80;100487.91;10334609;28;20747;-75
2021/06/22 13:06:50;;;;;;;5.20;3.35;;;;;;;22.87;41.07;100486.81;10351737;28;20226;-75
2021/06/22 13:11:55;;;;;;;5.45;3.40;;;;;;;22.60;41.40;100495.94;10352268;28;20192;-75
2021/06/22 13:16:59;;;;;;;5.90;3.60;;;;;;;23.35;40.75;100483.28;10351324;28;20215;-75
2021/06/22 13:22:05;;;;;;;4.15;3.60;;;;;;;23.17;40.07;100489.31;10334379;28;20195;-75
2021/06/22 13:27:11;;;;;;;6.47;4.25;;;;;;;23.11;40.19;100490.13;10351008;28;20779;-75
2021/06/22 13:32:23;;;;;;;5.07;3.70;;;;;;;23.17;39.85;100492.03;10351270;28;20562;-75
2021/06/22 13:37:28;;;;;;;5.63;3.33;;;;;;;23.71;38.95;100491.16;10332627;28;20322;-75
2021/06/22 13:42:31;;;;;;;5.55;3.72;;;;;;;23.43;38.85;100491.31;10350944;28;20187;-75
2021/06/22 13:47:38;;;;;;;7.72;3.70;;;;;;;23.44;39.30;100487.50;10350288;28;20718;-75
2021/06/22 13:52:51;;;;;;;6.35;4.03;;;;;;;24.26;38.94;100482.75;10351338;28;20207;-77
2021/06/22 13:57:54;;;;;;;6.30;3.35;;;;;;;23.87;38.06;100479.81;10332994;28;20219;-75
2021/06/22 14:02:57;;;;;;;5.88;3.70;;;;;;;23.38;39.20;100486.44;10350642;28;20203;-75
2021/06/22 14:08:03;;;;;;;5.70;4.13;;;;;;;24.44;37.86;100479.41;10349923;28;20771;-75
2021/06/22 14:13:08;;;;;;;5.78;3.80;;;;;;;23.70;37.70;100491.38;10341558;28;20288;-75
2021/06/22 14:18:11;;;;;;;5.95;3.53;;;;;;;23.35;40.12;100486.84;10320437;28;20219;-75
2021/06/22 14:23:16;;;;;;;6.43;4.05;;;;;;;25.04;35.43;100479.25;10309547;28;20660;-74
2021/06/22 14:28:21;;;;;;;4.95;4.00;;;;;;;24.48;37.25;100478.75;10308828;28;20244;-75
2021/06/22 14:33:25;;;;;;;7.05;4.65;;;;;;;23.09;38.99;100484.84;10309284;28;20577;-75
2021/06/22 14:38:30;;;;;;;6.57;4.38;;;;;;;23.69;38.16;100486.91;10341139;23;20241;-76
2021/06/22 14:43:33;;;;;;;6.72;4.35;;;;;;;25.93;35.02;100477.50;10380196;28;20229;-75
2021/06/22 14:48:38;;;;;;;6.00;4.03;;;;;;;26.98;32.33;100479.47;10371021;28;20231;-76
2021/06/22 14:53:42;;;;;;;5.50;5.00;;;;;;;27.76;31.89;100473.13;10355305;28;20229;-76
2021/06/22 14:58:45;;;;;;;7.00;5.32;;;;;;;27.77;32.77;100466.50;10346407;28;20234;-76
2021/06/22 15:03:48;;;;;;;6.15;5.20;;;;;;;27.14;32.52;100463.13;10377973;28;20195;-75
2021/06/22 15:08:52;;;;;;;9.80;6.40;;;;;;;24.87;35.19;100467.88;10357992;28;20226;-74
2021/06/22 15:13:55;;;;;;;7.40;5.68;;;;;;;24.96;36.10;100470.19;10354241;28;20225;-74
2021/06/22 15:18:58;;;;;;;7.05;6.45;;;;;;;24.31;36.06;100466.50;10367036;28;20341;-75
2021/06/22 15:24:03;;;;;;;9.30;7.00;;;;;;;25.73;35.46;100478.50;10366116;28;20190;-74
2021/06/22 15:29:20;;;;;;;10.23;9.20;;;;;;;25.79;33.28;100496.84;10366596;28;20226;-74
2021/06/22 15:34:24;;;;;;;10.88;8.63;;;;;;;25.24;34.83;100499.25;10353000;28;20238;-75
2021/06/22 15:39:28;;;;;;;10.80;8.52;;;;;;;24.00;36.62;100487.22;10347606;28;20305;-74
2021/06/22 15:44:31;;;;;;;9.43;8.00;;;;;;;23.23;38.86;100502.22;10363628;28;20195;-76
2021/06/22 15:49:34;;;;;;;8.38;7.53;;;;;;;23.79;39.09;100507.44;10377824;28;20222;-75
2021/06/22 15:54:38;;;;;;;9.27;8.38;;;;;;;24.48;36.60;100500.72;10377764;28;20203;-75
2021/06/22 15:59:41;;;;;;;11.13;8.43;;;;;;;27.30;32.52;100500.25;10380102;28;20206;-76
2021/06/22 16:04:45;;;;;;;9.20;8.30;;;;;;;29.22;30.10;100486.22;10360433;28;20555;-75
2021/06/22 16:09:49;;;;;;;10.02;7.97;;;;;;;26.36;33.19;100490.50;10364233;28;20215;-75
2021/06/22 16:14:52;;;;;;;12.48;8.15;;;;;;;24.13;36.31;100499.22;10375076;28;20206;-75
2021/06/22 16:19:55;;;;;;;10.38;7.72;;;;;;;23.08;38.89;100498.72;10353388;28;20230;-75
2021/06/22 16:24:59;;;;;;;9.30;8.38;;;;;;;22.72;39.40;100497.06;10373372;28;20771;-75
2021/06/22 16:30:02;;;;;;;11.35;9.38;;;;;;;22.57;39.98;100497.19;10384501;28;20237;-76
2021/06/22 16:35:06;;;;;;;10.57;9.45;;;;;;;23.75;38.68;100505.28;10380113;28;20187;-75
2021/06/22 16:40:13;;;;;;;10.35;7.10;;;;;;;23.11;38.99;100507.41;10363641;28;20237;-75
2021/06/22 16:45:17;;;;;;;9.25;6.68;;;;;;;22.09;40.54;100507.94;10360285;28;20542;-74
2021/06/22 16:50:20;;;;;;;8.70;6.93;;;;;;;21.13;42.01;100516.34;10364140;28;20218;-74
2021/06/22 16:55:24;;;;;;;6.82;6.00;;;;;;;20.63;43.52;100522.56;10362036;28;20199;-75
2021/06/22 17:00:29;;;;;;;6.85;6.15;;;;;;;20.17;44.25;100522.63;10363354;28;20292;-75
2021/06/22 17:05:32;;;;;;;8.52;5.70;;;;;;;19.97;45.08;100525.03;10362971;28;20195;-75
2021/06/22 17:10:38;;;;;;;6.68;5.85;;;;;;;19.87;45.46;100520.66;10363848;28;20221;-75
2021/06/22 17:15:41;;;;;;;6.57;5.95;;;;;;;19.84;45.23;100525.63;10367954;28;20573;-75
2021/06/22 17:20:44;;;;;;;7.72;6.93;;;;;;;19.76;45.48;100521.06;10354068;28;20230;-75
2021/06/22 17:25:50;;;;;;;12.50;9.75;;;;;;;19.55;47.02;100535.31;10356977;28;20191;-75
2021/06/22 17:30:53;;;;;;;12.57;9.35;;;;;;;19.31;47.41;100536.31;10349385;28;20227;-74
2021/06/22 17:35:56;;;;;;;10.85;9.75;;;;;;;19.11;48.90;100545.91;10368057;28;20217;-74
2021/06/22 17:41:00;;;;;;;10.25;8.88;;;;;;;18.98;49.29;100543.78;10381234;28;20223;-74
2021/06/22 17:46:04;;;;;;;9.60;8.50;;;;;;;18.91;49.80;100556.38;10389576;28;20191;-74
2021/06/22 17:51:07;;;;;;;9.23;7.22;;;;;;;18.86;50.01;100561.50;10369122;28;20250;-74
2021/06/22 17:56:12;;;;;;;8.93;6.30;;;;;;;18.70;49.61;100552.28;10369653;28;20195;-75
2021/06/22 18:01:14;;;;;;;10.88;6.72;;;;;;;18.60;50.87;100562.53;10347745;28;20207;-75
2021/06/22 18:06:17;;;;;;;8.93;6.70;;;;;;;18.53;51.29;100548.75;10348664;28;20187;-75
2021/06/22 18:11:22;;;;;;;9.40;7.60;;;;;;;18.47;52.69;100546.75;10348875;28;20227;-75
2021/06/22 18:16:25;;;;;;;9.60;7.57;;;;;;;18.31;55.12;100558.47;10348865;28;20597;-77
2021/06/22 18:21:29;;;;;;;11.30;8.82;;;;;;;18.21;54.33;100560.53;10346375;28;20203;-74
2021/06/22 18:26:33;;;;;;;9.25;7.82;;;;;;;18.07;53.35;100572.06;10386806;28;20191;-75
2021/06/22 18:31:36;;;;;;;11.10;7.88;;;;;;;18.16;53.41;100573.78;10379684;28;20225;-76
2021/06/22 18:36:39;;;;;;;12.30;7.25;;;;;;;18.03;53.80;100570.72;10368046;28;20319;-75
2021/06/22 18:41:46;;;;;;;11.45;6.93;;;;;;;17.90;53.30;100576.59;10382454;28;20214;-73
2021/06/22 18:46:49;;;;;;;7.72;6.90;;;;;;;17.70;54.63;100578.78;10387382;28;20197;-75
2021/06/22 18:51:52;;;;;;;9.27;7.40;;;;;;;17.56;54.92;100584.88;10387338;28;20252;-75
2021/06/22 18:56:56;;;;;;;10.63;7.30;;;;;;;17.59;54.63;100573.66;10387260;28;20221;-75
2021/06/22 19:01:59;;;;;;;8.95;7.00;;;;;;;17.56;55.26;100588.44;10347153;28;20207;-75
2021/06/22 19:07:03;;;;;;;9.98;6.10;;;;;;;17.52;53.63;100587.03;10361251;28;20290;-75
2021/06/22 19:12:08;;;;;;;8.07;5.50;;;;;;;17.44;53.15;100577.03;10376389;28;20221;-75
2021/06/22 19:17:11;;;;;;;7.47;5.43;;;;;;;17.32;52.67;100589.19;10386225;28;20183;-75
2021/06/22 19:22:14;;;;;;;8.38;5.65;;;;;;;17.23;56.43;100590.19;10367146;28;20194;-75
2021/06/22 19:34:06;;;;;;;7.78;5.25;;;;;;;16.62;60.46;100594.72;10385979;28;20194;-76
2021/06/22 19:39:22;;;;;;;10.35;5.65;;;;;;;16.52;60.23;100599.38;10386283;28;20636;-74
2021/06/22 19:44:25;;;;;;;9.15;5.72;;;;;;;16.46;58.63;100600.88;10370518;28;20203;-75
2021/06/22 19:49:29;;;;;;;7.57;5.93;;;;;;;16.42;57.06;100606.75;10345465;28;20230;-74
2021/06/22 19:54:32;;;;;;;13.77;6.95;;;;;;;16.33;56.68;100620.22;10345899;28;20273;-74
2021/06/22 19:59:35;;;;;;;8.77;5.97;;;;;;;16.27;55.41;100620.88;10385635;28;20599;-74
2021/06/22 20:04:42;;;;;;;10.27;6.97;;;;;;;16.17;54.85;100614.63;10335570;28;20218;-74
2021/06/22 20:09:45;;;;;;;12.75;6.85;;;;;;;16.15;55.54;100620.22;10344837;28;20752;-72
2021/06/22 20:14:49;;;;;;;8.60;7.05;;;;;;;16.09;55.49;100633.53;10344347;28;20559;-72
2021/06/22 20:19:53;;;;;;;10.07;6.03;;;;;;;16.07;55.83;100638.25;10343963;28;20223;-71
2021/06/22 20:24:56;;;;;;;7.72;5.20;;;;;;;15.97;54.80;100646.47;10366049;28;20580;-71
2021/06/22 20:29:59;;;;;;;8.50;4.82;;;;;;;15.85;54.40;100639.53;10385397;28;20605;-72
2021/06/22 20:35:04;;;;;;;8.75;5.13;;;;;;;15.66;54.02;100645.91;10383944;28;20202;-72
2021/06/22 20:40:09;;;;;;;8.75;5.05;;;;;;;15.66;54.21;100656.75;10381123;22;20603;-72
2021/06/22 20:45:13;;;;;;;6.65;4.55;;;;;;;15.67;54.93;100670.16;10384994;28;20209;-73
2021/06/22 20:50:17;;;;;;;9.50;5.38;;;;;;;15.65;54.85;100674.00;10393089;28;20222;-73
2021/06/22 20:55:20;;;;;;;7.43;5.90;;;;;;;15.59;55.65;100674.63;10392783;28;20191;-73
2021/06/22 21:00:23;;;;;;;8.60;5.00;;;;;;;15.55;56.15;100674.06;10392855;28;20210;-72
2021/06/22 21:05:28;;;;;;;6.75;5.32;;;;;;;15.55;56.29;100695.72;10388554;28;20206;-72
2021/06/22 21:10:31;;;;;;;8.65;5.40;;;;;;;15.51;56.67;100704.28;10391472;28;20222;-73
2021/06/22 21:15:34;;;;;;;6.75;5.43;;;;;;;15.49;57.06;100704.44;10390246;28;20199;-72
2021/06/22 21:20:39;;;;;;;9.40;5.68;;;;;;;15.31;56.46;100693.50;10391022;28;20211;-72
2021/06/22 21:25:42;;;;;;;10.20;6.40;;;;;;;15.18;56.07;100701.09;10350893;28;20290;-72
2021/06/22 21:30:45;;;;;;;9.50;5.85;;;;;;;15.18;56.18;100703.81;10332465;28;20245;-73
2021/06/22 21:35:49;;;;;;;10.48;5.82;;;;;;;15.12;56.42;100704.41;10350009;28;20283;-73
2021/06/22 21:40:56;;;;;;;11.13;6.22;;;;;;;15.09;56.87;100707.41;10350480;28;20223;-72
2021/06/22 21:45:59;;;;;;;10.40;6.22;;;;;;;14.95;57.12;100706.84;10350059;28;20199;-73
2021/06/22 21:51:04;;;;;;;12.10;6.75;;;;;;;14.93;56.46;100719.66;10349970;28;20231;-72
2021/06/22 21:56:07;;;;;;;12.45;6.80;;;;;;;14.89;56.42;100731.78;10331275;28;20208;-72
2021/06/22 22:01:10;;;;;;;12.43;6.65;;;;;;;14.81;56.75;100729.78;10348639;28;20702;-73
2021/06/22 22:06:15;;;;;;;9.55;7.30;;;;;;;14.77;56.74;100727.50;10348087;28;20195;-72
2021/06/22 22:11:18;;;;;;;14.00;7.82;;;;;;;14.66;57.04;100733.91;10348289;28;20215;-72
2021/06/22 22:16:21;;;;;;;11.98;8.07;;;;;;;14.56;56.82;100733.94;10347810;28;20730;-73
2021/06/22 22:21:25;;;;;;;16.55;7.68;;;;;;;14.48;57.03;100722.09;10348207;28;20576;-72
2021/06/22 22:26:28;;;;;;;10.52;7.90;;;;;;;14.33;57.57;100732.44;10347722;28;20191;-72
2021/06/22 22:31:31;;;;;;;13.02;7.95;;;;;;;14.20;58.28;100735.41;10330005;28;20819;-72
2021/06/22 22:36:36;;;;;;;13.07;8.88;;;;;;;14.15;58.79;100727.72;10347168;28;20897;-72
2021/06/22 22:41:39;;;;;;;13.77;8.02;;;;;;;14.12;59.13;100732.53;10347965;28;20219;-73
2021/06/22 22:46:42;;;;;;;11.57;7.72;;;;;;;14.06;59.40;100723.13;10347667;28;20194;-73
2021/06/22 22:51:47;;;;;;;16.13;8.55;;;;;;;13.93;59.52;100731.50;10347822;28;20297;-73
2021/06/22 22:56:50;;;;;;;13.82;8.55;;;;;;;13.91;59.85;100730.78;10347170;28;20215;-73
2021/06/22 23:01:52;;;;;;;14.43;8.18;;;;;;;13.99;60.07;100727.41;10347129;28;20290;-73
2021/06/22 23:06:57;;;;;;;10.18;8.13;;;;;;;13.94;59.85;100730.50;10346826;28;20202;-73
2021/06/22 23:12:00;;;;;;;14.02;8.95;;;;;;;13.86;60.14;100741.16;10346688;28;20692;-73
2021/06/22 23:17:03;;;;;;;15.27;7.70;;;;;;;13.94;60.36;100735.06;10346205;28;20235;-73